Portada
METAR-TAF:

METAR-TAF

Aeroports :

Kairuan, Tunísia

latitud: 35-40N, longitud: 010-06E, altitud: 60 m

Observació

L'informe es va fer fa 3 hores i 10 minuts, a les 13:00 UTC
Vent 2 kt del Sud
Temperatura 24°C
Humitat 34%
Pressió 1013 hPa
Visibilitat 10 km o més
Núvols disperses a una alçada de 2300 ft

METAR: DTTK 261300Z 19002KT 9999 SCT023 24/07 Q1013

Hora: 17:10 (16:10 UTC)


TAF: manca

Observacions i pronòstics meteorològics de més de 4000 aeroports (METAR i TAF).

Les estacions disponibles són els punts grocs i vermells al mapa.

Posi el ratolí al punt desitjat per veure el nom de l'estació.

Feu clic per veure les observacions i els pronòstics meteorològics.

Per canviar el mapa: feu clic els botons verds amb una creu de color negre per apropar; al botó verd amb un guió per allunyar la imatge; o en les fletxes verdes per a mapes adjacents.


METAR-TAF: